< < Back
Terminal Aerodrome Forecast


Current Version              Previous Versions:   1  2  3  4  5  6  7  8  9  

Terminal Aerodrome Forecast

849
FTUS42 KFFC 281352 AAA
TAFATL
TAF AMD
KATL 281352Z 2814/2918 35006KT P6SM SKC
     FM282000 VRB03KT P6SM SKC
     FM291500 17006KT P6SM SCT250=

Latest METAR

214
SAUS70 KWBC 282000
MTRATL
METAR KATL 281952Z 00000KT 10SM FEW250 12/M05 A3022 RMK AO2 SLP239
T01221050


USA.gov is the U.S. government's official web portal to all federal, state and local government web resources and services.